Time;durP1;ratioP1;P1;durP2;ratioP2;P2;SDS_P1;SDS_P2;PMS_P1;PMS_P2;Temp;Humidity;BMP_temperature;BMP_pressure;BME280_temperature;BME280_humidity;BME280_pressure;Samples;Min_cycle;Max_cycle;Signal;HPM_P1;HPM_P2
2023/09/08 00:02:21;;;;;;;16.23;10.50;;;24.40;64.40;;;;;;6126891;28;84035;-67
2023/09/08 00:05:22;;;;;;;19.17;10.00;;;24.30;64.50;;;;;;6131046;28;83503;-55
2023/09/08 00:08:23;;;;;;;18.75;11.63;;;24.30;64.50;;;;;;6132999;28;84175;-54
2023/09/08 00:11:24;;;;;;;16.65;10.50;;;24.30;64.60;;;;;;6125671;28;85240;-55
2023/09/08 00:14:24;;;;;;;16.00;10.32;;;24.30;64.70;;;;;;6124691;28;84355;-51
2023/09/08 00:17:25;;;;;;;17.08;9.77;;;24.30;64.60;;;;;;6125078;28;83201;-53
2023/09/08 00:20:26;;;;;;;17.15;11.25;;;24.30;64.70;;;;;;6126464;28;83878;-52
2023/09/08 00:23:28;;;;;;;17.50;10.73;;;24.30;64.50;;;;;;6132252;28;82848;-53
2023/09/08 00:26:28;;;;;;;19.92;10.45;;;24.40;64.60;;;;;;6125522;28;83444;-55
2023/09/08 00:29:29;;;;;;;14.30;9.43;;;24.30;64.70;;;;;;6125913;28;84160;-52
2023/09/08 00:32:29;;;;;;;21.55;11.75;;;24.30;64.60;;;;;;6123628;28;84317;-53
2023/09/08 00:35:30;;;;;;;20.08;10.40;;;24.30;64.70;;;;;;6122859;28;83225;-53
2023/09/08 00:38:30;;;;;;;18.75;10.38;;;24.30;64.60;;;;;;6123867;28;84259;-53
2023/09/08 00:41:31;;;;;;;15.80;9.70;;;24.30;64.50;;;;;;6125338;28;83171;-52
2023/09/08 00:44:31;;;;;;;15.35;10.07;;;24.30;64.40;;;;;;6128119;28;83671;-55
2023/09/08 00:47:32;;;;;;;16.95;10.27;;;24.30;64.40;;;;;;6122386;28;83662;-52
2023/09/08 00:50:33;;;;;;;12.52;9.35;;;24.30;64.30;;;;;;6125062;28;83527;-55
2023/09/08 00:53:34;;;;;;;15.23;9.05;;;24.20;64.20;;;;;;6128083;28;83054;-55
2023/09/08 00:56:34;;;;;;;15.88;8.93;;;24.30;64.20;;;;;;6126542;28;80536;-53
2023/09/08 00:59:35;;;;;;;17.13;9.98;;;24.20;64.00;;;;;;6127283;28;80598;-52
2023/09/08 01:02:35;;;;;;;17.38;9.38;;;24.30;63.80;;;;;;6123692;28;82954;-56
2023/09/08 01:05:36;;;;;;;15.10;9.98;;;24.20;63.70;;;;;;6135129;28;81999;-57
2023/09/08 01:08:36;;;;;;;14.77;9.63;;;24.20;63.70;;;;;;6142432;28;83561;-56
2023/09/08 01:11:37;;;;;;;16.95;9.90;;;24.20;63.70;;;;;;6126805;28;86161;-57
2023/09/08 01:14:37;;;;;;;13.27;8.57;;;24.30;63.80;;;;;;6128271;28;81579;-58
2023/09/08 01:17:39;;;;;;;13.65;8.25;;;24.20;63.70;;;;;;6125579;28;83883;-58
2023/09/08 01:20:39;;;;;;;15.85;9.15;;;24.20;63.90;;;;;;6119825;28;89847;-68
2023/09/08 01:23:40;;;;;;;12.35;9.00;;;24.20;63.70;;;;;;6137695;28;80793;-72
2023/09/08 01:26:41;;;;;;;10.38;8.30;;;24.20;63.70;;;;;;6128766;28;80733;-71
2023/09/08 01:29:41;;;;;;;14.57;8.88;;;24.10;63.60;;;;;;6125982;28;83413;-67
2023/09/08 01:32:42;;;;;;;15.35;9.25;;;24.20;63.70;;;;;;6127421;28;82954;-68
2023/09/08 01:35:42;;;;;;;13.43;8.57;;;24.20;63.80;;;;;;6133523;28;81680;-67
2023/09/08 01:38:43;;;;;;;17.50;9.48;;;24.10;63.40;;;;;;6146165;28;86994;-57
2023/09/08 01:41:43;;;;;;;14.57;8.68;;;24.10;63.50;;;;;;6127833;28;80864;-57
2023/09/08 01:44:44;;;;;;;11.07;8.07;;;24.10;63.40;;;;;;6127903;28;80203;-58
2023/09/08 01:47:45;;;;;;;13.50;7.97;;;24.20;63.20;;;;;;6128668;28;80392;-58
2023/09/08 01:50:46;;;;;;;12.93;8.43;;;24.20;63.10;;;;;;6130326;28;83264;-58
2023/09/08 01:53:47;;;;;;;14.73;9.45;;;24.10;63.00;;;;;;6130558;28;82428;-57
2023/09/08 01:56:48;;;;;;;13.88;8.65;;;24.20;62.90;;;;;;6129976;28;84619;-57
2023/09/08 01:59:48;;;;;;;12.88;8.48;;;24.10;62.70;;;;;;6129688;28;81909;-56
2023/09/08 02:02:49;;;;;;;11.77;8.40;;;24.20;62.80;;;;;;6131645;28;80781;-58
2023/09/08 02:05:49;;;;;;;12.23;8.23;;;24.10;62.60;;;;;;6129682;28;82211;-58
2023/09/08 02:08:50;;;;;;;13.52;8.32;;;24.10;62.60;;;;;;6131888;28;80517;-58
2023/09/08 02:11:50;;;;;;;11.18;7.60;;;24.10;62.60;;;;;;6130224;28;80582;-57
2023/09/08 02:14:51;;;;;;;13.88;8.05;;;24.10;62.60;;;;;;6126504;28;80579;-66
2023/09/08 02:17:52;;;;;;;14.23;8.25;;;24.10;62.60;;;;;;6129443;28;82920;-67
2023/09/08 02:20:53;;;;;;;12.82;7.38;;;24.10;62.50;;;;;;6123760;28;80448;-68
2023/09/08 02:23:53;;;;;;;12.25;7.85;;;24.10;62.40;;;;;;6131610;28;80586;-68
2023/09/08 02:26:54;;;;;;;12.48;8.15;;;24.10;62.30;;;;;;6141578;28;83638;-68
2023/09/08 02:29:55;;;;;;;11.25;7.30;;;24.10;62.30;;;;;;6133040;28;81681;-67
2023/09/08 02:32:55;;;;;;;14.40;8.52;;;24.00;62.20;;;;;;6118566;28;83414;-65
2023/09/08 02:35:56;;;;;;;11.20;8.02;;;24.00;62.20;;;;;;6141441;28;82388;-66
2023/09/08 02:38:58;;;;;;;14.52;8.55;;;24.10;62.10;;;;;;6122993;28;83959;-67
2023/09/08 02:41:59;;;;;;;14.48;8.32;;;24.10;62.00;;;;;;6154816;28;83343;-65
2023/09/08 02:45:01;;;;;;;13.27;7.93;;;24.00;61.90;;;;;;6129000;28;83279;-65
2023/09/08 02:48:02;;;;;;;12.18;8.30;;;24.00;61.90;;;;;;6128222;28;83357;-66
2023/09/08 02:51:04;;;;;;;14.75;8.40;;;24.00;61.80;;;;;;6129065;28;80589;-67
2023/09/08 02:54:04;;;;;;;14.02;8.02;;;24.10;61.80;;;;;;6130731;28;80490;-65
2023/09/08 02:57:05;;;;;;;13.20;8.00;;;24.10;61.80;;;;;;6148324;28;83524;-66
2023/09/08 03:00:06;;;;;;;11.57;7.88;;;24.10;61.60;;;;;;6136333;28;80525;-65
2023/09/08 03:03:08;;;;;;;13.55;7.88;;;24.10;61.60;;;;;;6129450;28;83201;-66
2023/09/08 03:06:08;;;;;;;11.82;7.90;;;24.10;61.50;;;;;;6144670;28;80477;-69
2023/09/08 03:09:09;;;;;;;11.30;7.45;;;24.00;61.60;;;;;;6141408;28;82458;-70
2023/09/08 03:12:10;;;;;;;17.50;8.07;;;24.00;61.60;;;;;;6129254;28;84737;-71
2023/09/08 03:15:11;;;;;;;14.95;8.02;;;24.00;61.70;;;;;;6128641;28;81773;-67
2023/09/08 03:18:11;;;;;;;15.15;8.02;;;24.00;61.60;;;;;;6128951;28;83983;-68
2023/09/08 03:21:12;;;;;;;13.35;7.95;;;24.00;61.70;;;;;;6117994;28;80562;-68
2023/09/08 03:24:12;;;;;;;11.07;7.40;;;24.00;61.80;;;;;;6129115;28;83380;-68
2023/09/08 03:27:13;;;;;;;14.63;9.20;;;24.00;62.30;;;;;;6129356;28;82233;-67
2023/09/08 03:30:13;;;;;;;11.10;8.20;;;24.00;61.70;;;;;;6127432;28;83285;-67
2023/09/08 03:33:14;;;;;;;14.15;8.75;;;23.90;61.80;;;;;;6124922;28;83172;-67
2023/09/08 03:36:15;;;;;;;14.98;8.70;;;24.00;61.90;;;;;;6125912;28;82151;-66
2023/09/08 03:39:15;;;;;;;17.38;9.55;;;24.00;61.80;;;;;;6132063;28;80393;-69
2023/09/08 03:42:17;;;;;;;17.13;8.65;;;23.90;61.80;;;;;;6126169;28;82324;-70
2023/09/08 03:45:18;;;;;;;13.68;8.77;;;23.90;62.20;;;;;;6127562;28;83430;-72
2023/09/08 03:48:18;;;;;;;19.58;9.48;;;24.00;62.10;;;;;;6129754;28;80861;-71
2023/09/08 03:51:19;;;;;;;17.08;9.65;;;24.10;62.00;;;;;;6125738;28;83160;-69
2023/09/08 03:54:20;;;;;;;13.88;8.73;;;24.10;62.00;;;;;;6124284;28;83398;-72
2023/09/08 03:57:20;;;;;;;12.13;7.57;;;24.10;62.00;;;;;;6126106;28;82017;-73
2023/09/08 04:00:22;;;;;;;15.77;9.60;;;24.10;61.90;;;;;;6127987;28;80964;-69
2023/09/08 04:03:22;;;;;;;15.65;8.70;;;24.10;61.90;;;;;;6127561;28;83360;-66
2023/09/08 04:06:24;;;;;;;14.65;8.27;;;24.10;62.00;;;;;;6140047;28;83520;-69
2023/09/08 04:09:25;;;;;;;13.40;8.60;;;24.10;62.40;;;;;;6136688;28;83260;-66
2023/09/08 04:12:26;;;;;;;12.20;7.10;;;24.10;63.30;;;;;;6129772;28;81320;-66
2023/09/08 04:15:26;;;;;;;14.48;8.20;;;24.10;63.30;;;;;;6106479;28;83681;-71
2023/09/08 04:18:27;;;;;;;17.45;8.40;;;24.20;63.90;;;;;;6120415;28;81409;-65
2023/09/08 04:21:27;;;;;;;15.40;7.90;;;24.10;63.80;;;;;;6120288;28;83616;-71
2023/09/08 04:24:28;;;;;;;11.15;7.55;;;24.20;64.10;;;;;;6130489;28;82798;-71
2023/09/08 04:27:28;;;;;;;15.48;8.07;;;24.20;64.40;;;;;;6135378;28;83682;-74
2023/09/08 04:30:29;;;;;;;12.35;7.30;;;24.20;64.80;;;;;;6139247;28;80784;-70
2023/09/08 04:33:30;;;;;;;17.25;7.63;;;24.30;64.40;;;;;;6136872;28;83818;-69
2023/09/08 04:36:30;;;;;;;11.23;6.75;;;24.30;65.00;;;;;;6131953;28;83458;-70
2023/09/08 04:39:31;;;;;;;13.55;6.72;;;24.30;65.10;;;;;;6125656;28;82375;-68
2023/09/08 04:42:32;;;;;;;13.98;8.30;;;24.30;65.10;;;;;;6127971;28;80358;-68
2023/09/08 04:45:34;;;;;;;15.25;8.13;;;24.30;64.80;;;;;;6128281;28;83327;-67
2023/09/08 04:48:34;;;;;;;16.77;9.15;;;24.30;64.40;;;;;;6125773;28;82358;-67
2023/09/08 04:51:35;;;;;;;18.75;9.98;;;24.30;63.80;;;;;;6127469;28;83272;-66
2023/09/08 04:54:36;;;;;;;20.20;10.00;;;24.20;63.20;;;;;;6122657;28;83423;-68
2023/09/08 04:57:36;;;;;;;23.80;10.82;;;24.20;62.90;;;;;;6117570;28;86105;-66
2023/09/08 05:00:37;;;;;;;22.17;10.27;;;24.20;62.90;;;;;;6122089;28;84739;-58
2023/09/08 05:03:37;;;;;;;24.27;10.15;;;24.10;63.30;;;;;;6120259;28;83688;-55
2023/09/08 05:06:39;;;;;;;20.83;9.70;;;24.10;62.50;;;;;;6115755;28;86328;-55
2023/09/08 05:09:40;;;;;;;18.33;9.95;;;24.10;62.80;;;;;;6121694;28;86979;-56
2023/09/08 05:12:41;;;;;;;17.90;11.20;;;24.00;62.50;;;;;;6129256;28;82988;-57
2023/09/08 05:15:43;;;;;;;20.10;11.07;;;24.00;62.50;;;;;;6121652;28;84040;-54
2023/09/08 05:18:45;;;;;;;19.63;11.65;;;24.00;62.50;;;;;;6095518;28;90281;-54
2023/09/08 05:21:46;;;;;;;22.73;12.55;;;24.00;62.60;;;;;;6115016;28;87013;-54
2023/09/08 05:24:47;;;;;;;24.23;13.52;;;24.00;62.80;;;;;;6112873;28;86092;-55
2023/09/08 05:27:48;;;;;;;22.70;13.68;;;24.00;62.70;;;;;;6112266;28;84343;-54
2023/09/08 05:30:50;;;;;;;23.55;13.25;;;24.00;63.00;;;;;;6111873;28;88235;-50
2023/09/08 05:33:50;;;;;;;25.70;14.48;;;24.00;63.20;;;;;;6114128;28;85958;-53
2023/09/08 05:36:51;;;;;;;22.27;13.35;;;24.00;63.20;;;;;;6117068;28;86055;-53
2023/09/08 05:39:51;;;;;;;20.75;13.23;;;24.00;63.20;;;;;;6112996;28;84108;-54
2023/09/08 05:42:53;;;;;;;22.42;13.35;;;24.00;63.40;;;;;;6024687;28;85856;-53
2023/09/08 05:45:53;;;;;;;23.58;13.25;;;24.00;63.00;;;;;;5992647;28;86625;-50
2023/09/08 05:48:54;;;;;;;22.67;13.40;;;24.00;63.00;;;;;;6001416;28;86198;-51
2023/09/08 05:51:55;;;;;;;25.02;13.40;;;24.00;63.10;;;;;;5997844;28;84433;-50
2023/09/08 05:54:56;;;;;;;20.92;12.18;;;24.00;62.90;;;;;;6003756;28;86155;-53
2023/09/08 05:57:56;;;;;;;22.42;13.98;;;24.00;63.00;;;;;;5997599;28;86226;-52
2023/09/08 06:00:57;;;;;;;19.35;12.70;;;24.00;63.10;;;;;;5997200;28;86710;-54
2023/09/08 06:03:58;;;;;;;20.38;13.27;;;24.00;63.10;;;;;;5999003;28;86207;-55
2023/09/08 06:07:01;;;;;;;20.08;13.82;;;24.00;63.20;;;;;;6001395;28;85887;-53
2023/09/08 06:10:02;;;;;;;20.67;12.80;;;24.00;63.40;;;;;;6008005;28;86164;-52
2023/09/08 06:13:04;;;;;;;20.77;13.32;;;24.00;63.50;;;;;;6006033;28;85086;-66
2023/09/08 06:16:05;;;;;;;19.08;13.10;;;24.00;63.60;;;;;;6003469;28;85761;-67
2023/09/08 06:19:05;;;;;;;21.58;13.23;;;24.00;63.60;;;;;;6000981;28;85151;-67
2023/09/08 06:22:06;;;;;;;18.75;11.93;;;24.00;63.90;;;;;;5998951;28;86223;-67
2023/09/08 06:25:07;;;;;;;19.33;12.30;;;24.00;63.90;;;;;;5998987;28;86354;-66
2023/09/08 06:28:08;;;;;;;14.68;10.50;;;24.00;64.00;;;;;;6015576;28;86857;-69
2023/09/08 06:31:09;;;;;;;17.30;11.52;;;24.00;64.10;;;;;;6001153;28;85689;-71
2023/09/08 06:34:11;;;;;;;15.25;11.27;;;24.00;64.40;;;;;;5997378;28;85977;-69
2023/09/08 06:37:12;;;;;;;15.45;11.02;;;24.00;64.30;;;;;;6002372;28;84386;-69
2023/09/08 06:40:12;;;;;;;16.45;10.85;;;24.00;64.50;;;;;;6001269;28;85355;-69
2023/09/08 06:43:13;;;;;;;16.80;12.02;;;24.00;64.50;;;;;;6012013;28;85722;-69
2023/09/08 06:46:26;;;;;;;15.32;12.02;;;24.00;64.60;;;;;;6016128;28;84611;-72
2023/09/08 06:49:27;;;;;;;16.77;11.55;;;24.00;64.70;;;;;;5996499;28;86174;-67
2023/09/08 06:52:28;;;;;;;18.40;11.23;;;24.00;64.90;;;;;;5982107;28;85797;-68
2023/09/08 06:55:29;;;;;;;18.88;12.13;;;24.00;65.00;;;;;;5978837;28;88679;-69
2023/09/08 06:58:29;;;;;;;18.02;11.65;;;24.00;65.00;;;;;;5981151;28;85028;-69
2023/09/08 07:01:31;;;;;;;15.68;10.75;;;24.00;65.10;;;;;;6032546;28;84796;-69
2023/09/08 07:04:31;;;;;;;18.55;11.48;;;24.10;65.10;;;;;;6101539;28;84653;-70
2023/09/08 07:07:32;;;;;;;19.55;12.65;;;24.10;65.20;;;;;;6120842;28;83243;-71
2023/09/08 07:10:32;;;;;;;17.15;11.73;;;24.10;65.40;;;;;;6104338;28;85739;-70
2023/09/08 07:13:33;;;;;;;16.95;11.50;;;24.10;65.50;;;;;;6102663;28;84905;-72
2023/09/08 07:16:34;;;;;;;19.15;12.48;;;24.10;65.60;;;;;;6101474;28;85956;-69
2023/09/08 07:19:34;;;;;;;19.85;14.00;;;24.10;65.70;;;;;;6100734;28;88200;-71
2023/09/08 07:22:35;;;;;;;21.65;12.82;;;24.10;65.80;;;;;;6101288;28;85882;-72
2023/09/08 07:25:36;;;;;;;17.77;12.15;;;24.10;65.80;;;;;;6100200;28;86033;-69
2023/09/08 07:28:36;;;;;;;23.13;12.18;;;24.10;65.90;;;;;;6101770;28;85996;-54
2023/09/08 07:31:40;;;;;;;18.00;11.63;;;24.10;65.80;;;;;;6099674;28;85547;-55
2023/09/08 07:34:41;;;;;;;21.27;12.57;;;24.10;65.80;;;;;;6099652;28;85089;-55
2023/09/08 07:37:42;;;;;;;17.67;11.80;;;24.10;65.80;;;;;;6100564;28;84756;-54
2023/09/08 07:40:42;;;;;;;17.63;11.50;;;24.10;65.80;;;;;;6121321;28;84375;-55
2023/09/08 07:43:45;;;;;;;18.85;12.85;;;24.20;65.70;;;;;;6123569;28;84858;-55
2023/09/08 07:46:48;;;;;;;16.48;11.23;;;24.20;65.70;;;;;;6123965;28;85336;-55
2023/09/08 07:49:49;;;;;;;17.00;11.68;;;24.20;65.70;;;;;;6126256;28;83044;-55
2023/09/08 07:52:49;;;;;;;19.80;10.90;;;24.20;65.70;;;;;;6125250;28;83791;-55
2023/09/08 07:55:50;;;;;;;16.00;11.32;;;24.30;65.70;;;;;;6125350;28;83033;-55
2023/09/08 07:58:50;;;;;;;20.02;11.15;;;24.30;65.70;;;;;;6125443;28;83452;-55
2023/09/08 08:01:51;;;;;;;21.38;11.38;;;24.30;66.00;;;;;;6138608;28;84816;-54
2023/09/08 08:04:51;;;;;;;16.52;10.88;;;24.30;66.10;;;;;;6123574;28;83812;-69
2023/09/08 08:07:52;;;;;;;17.27;11.88;;;24.30;66.10;;;;;;6125850;28;84353;-70
2023/09/08 08:10:53;;;;;;;16.27;11.90;;;24.30;66.50;;;;;;6125393;28;85004;-70
2023/09/08 08:13:53;;;;;;;18.02;11.52;;;24.30;66.50;;;;;;6126406;28;83002;-70
2023/09/08 08:16:54;;;;;;;20.20;12.10;;;24.30;66.40;;;;;;6125519;28;83292;-69
2023/09/08 08:19:54;;;;;;;20.50;12.18;;;24.30;66.40;;;;;;6123414;28;84747;-68
2023/09/08 08:22:55;;;;;;;16.00;11.07;;;24.30;66.60;;;;;;6125418;28;83108;-55
2023/09/08 08:25:55;;;;;;;18.30;10.90;;;24.30;67.20;;;;;;6125246;28;83661;-55
2023/09/08 08:28:56;;;;;;;20.25;11.38;;;24.30;66.70;;;;;;6137554;28;83271;-56
2023/09/08 08:31:56;;;;;;;16.95;11.65;;;24.40;66.60;;;;;;6119293;28;83793;-57
2023/09/08 08:34:57;;;;;;;16.58;10.30;;;24.40;67.10;;;;;;6147430;28;85069;-54
2023/09/08 08:37:57;;;;;;;24.35;11.18;;;24.40;66.90;;;;;;6127478;28;83942;-56
2023/09/08 08:40:58;;;;;;;20.20;11.15;;;24.40;66.70;;;;;;6125243;28;83235;-68
2023/09/08 08:43:58;;;;;;;15.75;10.93;;;24.40;66.80;;;;;;6123645;28;84105;-67
2023/09/08 08:46:59;;;;;;;19.88;11.05;;;24.40;66.80;;;;;;6124019;28;83216;-61
2023/09/08 08:49:59;;;;;;;17.83;10.70;;;24.50;67.00;;;;;;6124379;28;83799;-67
2023/09/08 08:53:02;;;;;;;16.70;10.40;;;24.50;67.10;;;;;;6123093;28;83164;-67
2023/09/08 08:56:03;;;;;;;27.10;11.15;;;24.50;67.00;;;;;;6120475;28;86231;-69
2023/09/08 08:59:03;;;;;;;18.23;10.43;;;24.50;66.80;;;;;;6124810;28;84177;-74
2023/09/08 09:02:04;;;;;;;17.83;10.80;;;24.50;66.80;;;;;;6133865;28;83465;-73
2023/09/08 09:05:04;;;;;;;16.20;10.35;;;24.50;66.90;;;;;;6125332;28;83091;-74
2023/09/08 09:08:05;;;;;;;16.67;10.60;;;24.50;67.00;;;;;;6124724;28;83568;-72
2023/09/08 09:11:05;;;;;;;16.90;10.75;;;24.50;67.10;;;;;;6134249;28;83888;-75
2023/09/08 09:14:06;;;;;;;17.25;10.82;;;24.50;67.20;;;;;;6133395;28;83153;-73
2023/09/08 09:17:06;;;;;;;13.52;8.85;;;24.50;67.10;;;;;;6126267;28;83658;-53
2023/09/08 09:20:08;;;;;;;17.48;9.80;;;24.60;67.10;;;;;;6123077;28;83100;-49
2023/09/08 09:23:12;;;;;;;19.50;11.07;;;24.50;67.10;;;;;;6127190;28;84787;-52
2023/09/08 09:26:13;;;;;;;16.70;9.40;;;24.60;67.10;;;;;;6124579;28;83771;-50
2023/09/08 09:29:13;;;;;;;15.90;9.80;;;24.60;67.40;;;;;;6126771;28;81812;-52
2023/09/08 09:32:14;;;;;;;15.40;9.73;;;24.60;67.30;;;;;;6125659;28;81267;-49
2023/09/08 09:35:14;;;;;;;13.75;9.60;;;24.60;67.50;;;;;;6128274;28;80504;-52
2023/09/08 09:38:15;;;;;;;19.45;9.60;;;24.60;67.30;;;;;;6127862;28;80656;-51
2023/09/08 09:41:15;;;;;;;12.10;9.52;;;24.60;67.00;;;;;;6140439;28;80983;-50
2023/09/08 09:44:16;;;;;;;13.18;8.48;;;24.70;66.90;;;;;;6126226;28;81011;-46
2023/09/08 09:47:16;;;;;;;16.15;8.65;;;24.60;66.20;;;;;;6126508;28;80281;-52
2023/09/08 09:50:17;;;;;;;17.63;8.68;;;24.60;65.80;;;;;;6127274;28;80325;-49
2023/09/08 09:53:18;;;;;;;14.52;9.30;;;24.60;65.80;;;;;;6127575;28;80307;-68
2023/09/08 09:56:19;;;;;;;11.23;7.50;;;24.60;65.80;;;;;;6137638;28;80597;-68
2023/09/08 09:59:19;;;;;;;12.07;8.30;;;24.70;65.60;;;;;;6142099;28;81304;-68
2023/09/08 10:02:21;;;;;;;12.15;7.90;;;24.60;65.40;;;;;;6124921;28;80487;-68
2023/09/08 10:05:21;;;;;;;15.32;8.88;;;24.70;65.70;;;;;;6127129;28;82439;-68
2023/09/08 10:08:22;;;;;;;12.85;8.25;;;24.70;65.50;;;;;;6131240;28;80540;-68
2023/09/08 10:11:22;;;;;;;12.70;8.00;;;24.70;65.60;;;;;;6134490;28;81997;-67
2023/09/08 10:14:23;;;;;;;12.82;8.75;;;24.70;65.80;;;;;;6130045;28;80836;-66
2023/09/08 10:17:25;;;;;;;13.93;8.68;;;24.60;65.70;;;;;;6120623;28;81042;-66
2023/09/08 10:20:25;;;;;;;12.65;8.48;;;24.70;66.10;;;;;;6131338;28;80456;-65
2023/09/08 10:23:26;;;;;;;9.50;8.13;;;24.70;66.10;;;;;;6128960;28;81040;-67
2023/09/08 10:26:26;;;;;;;11.30;8.15;;;24.80;66.50;;;;;;6131185;28;81812;-67
2023/09/08 10:29:27;;;;;;;9.73;7.07;;;24.90;66.30;;;;;;6130610;28;80283;-66
2023/09/08 10:32:27;;;;;;;13.18;7.97;;;25.00;66.60;;;;;;6124031;28;80683;-53
2023/09/08 10:35:28;;;;;;;14.43;8.00;;;25.00;66.50;;;;;;6130473;28;83441;-54
2023/09/08 10:38:28;;;;;;;13.02;8.23;;;25.00;66.30;;;;;;6130519;28;80886;-52
2023/09/08 10:41:30;;;;;;;10.13;8.18;;;25.10;66.40;;;;;;6131230;28;80739;-55
2023/09/08 10:44:32;;;;;;;11.38;8.02;;;25.20;66.30;;;;;;6129430;28;80040;-52
2023/09/08 10:47:34;;;;;;;15.35;8.50;;;25.20;66.20;;;;;;6130271;28;81041;-53
2023/09/08 10:50:34;;;;;;;9.07;7.50;;;25.20;66.30;;;;;;6130441;28;81231;-53
2023/09/08 10:53:35;;;;;;;11.57;7.47;;;25.20;65.90;;;;;;6130169;28;81608;-50
2023/09/08 10:56:36;;;;;;;12.23;8.00;;;25.20;66.30;;;;;;6129953;28;81651;-53
2023/09/08 10:59:36;;;;;;;13.65;8.38;;;25.20;65.80;;;;;;6131034;28;80287;-53
2023/09/08 11:02:38;;;;;;;10.65;8.07;;;25.20;66.30;;;;;;6130199;28;80351;-50
2023/09/08 11:05:38;;;;;;;14.38;8.85;;;25.20;65.90;;;;;;6129884;28;81644;-53
2023/09/08 11:08:39;;;;;;;13.82;8.63;;;25.20;66.30;;;;;;6129601;28;80768;-72
2023/09/08 11:11:41;;;;;;;13.85;8.00;;;25.20;66.10;;;;;;6129391;28;80418;-77
2023/09/08 11:14:41;;;;;;;11.07;8.15;;;25.20;65.80;;;;;;6129959;28;80669;-77
2023/09/08 11:17:42;;;;;;;12.43;7.45;;;25.20;66.00;;;;;;6129679;28;80441;-77
2023/09/08 11:20:44;;;;;;;11.15;8.00;;;25.20;66.00;;;;;;6127098;28;84716;-75
2023/09/08 11:23:45;;;;;;;9.30;7.03;;;25.20;66.10;;;;;;6136374;28;80318;-67
2023/09/08 11:26:46;;;;;;;10.45;7.43;;;25.30;66.20;;;;;;6142062;28;81845;-67
2023/09/08 11:29:46;;;;;;;11.38;7.03;;;25.30;66.00;;;;;;6138367;28;82297;-67
2023/09/08 11:32:47;;;;;;;11.38;7.22;;;25.30;65.80;;;;;;6127646;28;82406;-67
2023/09/08 11:35:47;;;;;;;11.50;7.50;;;25.40;66.20;;;;;;6129516;28;81013;-69
2023/09/08 11:38:49;;;;;;;10.23;6.70;;;25.50;65.70;;;;;;6142059;28;84252;-68
2023/09/08 11:41:49;;;;;;;11.38;7.18;;;25.50;65.40;;;;;;6130618;28;80156;-67
2023/09/08 11:44:50;;;;;;;12.63;7.40;;;25.60;65.30;;;;;;6129275;28;80489;-53
2023/09/08 11:47:50;;;;;;;10.20;7.35;;;25.60;65.30;;;;;;6128897;28;80622;-51
2023/09/08 11:50:51;;;;;;;10.38;6.93;;;25.60;64.70;;;;;;6127314;28;80483;-51
2023/09/08 11:53:51;;;;;;;14.95;6.82;;;25.60;64.60;;;;;;6127399;28;80848;-52
2023/09/08 11:56:52;;;;;;;11.20;6.47;;;25.60;64.50;;;;;;6141870;28;80415;-53
2023/09/08 11:59:53;;;;;;;10.77;6.00;;;25.60;64.60;;;;;;6130254;28;81860;-54
2023/09/08 12:02:53;;;;;;;11.90;7.05;;;25.70;64.70;;;;;;6127936;28;80755;-54
2023/09/08 12:05:54;;;;;;;8.63;6.25;;;25.70;64.20;;;;;;6127585;28;80134;-52
2023/09/08 12:08:55;;;;;;;13.63;7.65;;;25.80;64.50;;;;;;6123156;28;80952;-49
2023/09/08 12:11:55;;;;;;;11.98;6.55;;;25.80;64.10;;;;;;6133651;28;81285;-52
2023/09/08 12:14:56;;;;;;;10.20;5.72;;;25.80;63.80;;;;;;6128881;28;80373;-53
2023/09/08 12:17:56;;;;;;;5.97;5.38;;;25.70;63.80;;;;;;6124902;28;80611;-55
2023/09/08 12:20:57;;;;;;;11.15;6.32;;;25.70;63.30;;;;;;6116173;28;82420;-52
2023/09/08 12:24:00;;;;;;;10.57;6.53;;;26.00;61.60;;;;;;6126913;28;81203;-51
2023/09/08 12:27:01;;;;;;;10.50;6.50;;;26.10;62.00;;;;;;6128350;28;81218;-50
2023/09/08 12:30:04;;;;;;;9.82;6.22;;;26.00;62.20;;;;;;6138045;28;80850;-53
2023/09/08 12:33:04;;;;;;;9.38;6.18;;;26.00;61.90;;;;;;6122840;28;81058;-54
2023/09/08 12:36:04;;;;;;;11.27;6.10;;;26.00;61.70;;;;;;6125523;28;80600;-52
2023/09/08 12:39:05;;;;;;;11.40;6.05;;;26.00;62.10;;;;;;6126958;28;80425;-56
2023/09/08 12:42:05;;;;;;;10.60;5.60;;;25.90;61.90;;;;;;6127301;28;80962;-53
2023/09/08 12:45:06;;;;;;;9.35;6.20;;;25.90;61.80;;;;;;6126141;28;80451;-53
2023/09/08 12:48:07;;;;;;;13.43;6.30;;;25.80;62.00;;;;;;6127243;28;80886;-55
2023/09/08 12:51:07;;;;;;;7.22;5.97;;;25.80;60.40;;;;;;6120946;28;83018;-56
2023/09/08 12:54:08;;;;;;;9.13;5.82;;;25.70;60.80;;;;;;6122405;28;80520;-55
2023/09/08 12:57:08;;;;;;;9.23;5.80;;;25.80;61.20;;;;;;6119121;28;84461;-54
2023/09/08 13:00:09;;;;;;;11.15;5.25;;;26.00;61.70;;;;;;6127934;28;80341;-53
2023/09/08 13:03:10;;;;;;;11.50;5.22;;;26.00;61.30;;;;;;6127828;28;80972;-53
2023/09/08 13:06:10;;;;;;;8.20;6.00;;;26.00;61.10;;;;;;6128375;28;82323;-49
2023/09/08 13:09:11;;;;;;;10.40;6.53;;;26.00;61.20;;;;;;6123126;28;80481;-53
2023/09/08 13:12:13;;;;;;;11.02;6.85;;;25.90;61.50;;;;;;6125297;28;80440;-51
2023/09/08 13:15:13;;;;;;;13.23;6.97;;;25.90;61.30;;;;;;6125652;28;80838;-66
2023/09/08 13:18:14;;;;;;;9.65;5.85;;;25.90;60.90;;;;;;6126686;28;80423;-69
2023/09/08 13:21:14;;;;;;;11.00;6.78;;;25.80;60.70;;;;;;6117368;28;82956;-74
2023/09/08 13:24:15;;;;;;;11.85;6.00;;;25.90;60.70;;;;;;6136814;28;81540;-71
2023/09/08 13:27:17;;;;;;;11.23;6.22;;;25.80;60.20;;;;;;6120156;28;80593;-71
2023/09/08 13:30:18;;;;;;;12.80;6.38;;;25.80;59.70;;;;;;6140179;28;83245;-70
2023/09/08 13:33:19;;;;;;;10.23;6.07;;;25.70;59.80;;;;;;6124214;28;80417;-74
2023/09/08 13:36:20;;;;;;;11.98;5.90;;;25.80;60.50;;;;;;6129069;28;81111;-66
2023/09/08 13:39:20;;;;;;;6.82;5.57;;;25.90;60.60;;;;;;6128185;28;81631;-73
2023/09/08 13:42:21;;;;;;;8.00;5.82;;;25.80;60.60;;;;;;6127626;28;80035;-68
2023/09/08 13:45:21;;;;;;;11.18;6.00;;;25.80;60.40;;;;;;6131698;28;80573;-65
2023/09/08 13:48:22;;;;;;;10.63;5.60;;;25.80;60.20;;;;;;6131793;28;81958;-70
2023/09/08 13:51:23;;;;;;;7.88;5.97;;;25.80;60.10;;;;;;6131473;28;81117;-69
2023/09/08 13:54:24;;;;;;;9.73;6.13;;;25.80;60.20;;;;;;6130338;28;80867;-68
2023/09/08 13:57:25;;;;;;;9.73;6.13;;;25.70;60.40;;;;;;6133236;28;80440;-72
2023/09/08 14:00:26;;;;;;;8.82;6.30;;;25.80;60.10;;;;;;6132090;28;80738;-72
2023/09/08 14:03:27;;;;;;;7.45;6.00;;;25.70;60.10;;;;;;6130596;28;81089;-71
2023/09/08 14:06:27;;;;;;;8.85;5.78;;;25.70;60.00;;;;;;6131344;28;81145;-71
2023/09/08 14:09:28;;;;;;;10.38;5.40;;;25.70;59.90;;;;;;6128342;28;80739;-77
2023/09/08 14:12:28;;;;;;;8.10;6.07;;;25.70;60.40;;;;;;6129954;28;80423;-75
2023/09/08 14:15:29;;;;;;;8.98;5.47;;;25.70;59.70;;;;;;6130917;28;80060;-65
2023/09/08 14:18:30;;;;;;;9.27;6.20;;;25.70;59.80;;;;;;6130623;28;80568;-68
2023/09/08 14:21:32;;;;;;;10.43;6.05;;;25.70;59.70;;;;;;6123884;28;82392;-69
2023/09/08 14:24:32;;;;;;;9.20;6.10;;;25.70;59.80;;;;;;6129778;28;80470;-73
2023/09/08 14:27:33;;;;;;;8.02;5.72;;;25.70;59.40;;;;;;6131666;28;80646;-73
2023/09/08 14:30:34;;;;;;;11.00;5.32;;;25.60;59.70;;;;;;6145673;28;81733;-75
2023/09/08 14:33:34;;;;;;;12.80;5.82;;;25.50;59.80;;;;;;6131488;28;80443;-68
2023/09/08 14:36:35;;;;;;;17.63;6.88;;;25.50;59.70;;;;;;6130981;28;82740;-73
2023/09/08 14:39:35;;;;;;;9.15;6.22;;;25.50;59.80;;;;;;6131421;28;80686;-67
2023/09/08 14:42:36;;;;;;;9.15;5.88;;;25.50;59.90;;;;;;6128710;28;80399;-73
2023/09/08 14:45:36;;;;;;;8.38;5.85;;;25.50;60.00;;;;;;6129159;28;83231;-73
2023/09/08 14:48:37;;;;;;;9.45;5.85;;;25.50;60.10;;;;;;6122546;28;80949;-71
2023/09/08 14:51:37;;;;;;;10.52;5.72;;;25.50;60.20;;;;;;6130680;28;81967;-74
2023/09/08 14:54:38;;;;;;;7.13;5.32;;;25.50;60.30;;;;;;6132529;28;86251;-70
2023/09/08 14:57:38;;;;;;;8.98;6.07;;;25.50;60.10;;;;;;6139447;28;81685;-66
2023/09/08 15:00:39;;;;;;;11.32;6.18;;;25.50;60.20;;;;;;6130278;28;80135;-68
2023/09/08 15:03:40;;;;;;;8.32;5.85;;;25.50;60.10;;;;;;6127048;28;80833;-69
2023/09/08 15:06:40;;;;;;;9.73;5.93;;;25.50;60.40;;;;;;6129037;28;80470;-52
2023/09/08 15:09:41;;;;;;;9.38;6.60;;;25.40;60.90;;;;;;6124021;28;80774;-53
2023/09/08 15:12:41;;;;;;;12.63;5.95;;;25.40;61.20;;;;;;6136312;28;80442;-53
2023/09/08 15:15:42;;;;;;;10.00;6.32;;;25.40;61.60;;;;;;6112922;28;86776;-50
2023/09/08 15:18:42;;;;;;;8.18;5.38;;;25.40;61.60;;;;;;6125857;28;81829;-51
2023/09/08 15:21:43;;;;;;;12.25;6.30;;;25.40;61.40;;;;;;6118794;28;80847;-53
2023/09/08 15:24:43;;;;;;;8.95;6.40;;;25.40;61.40;;;;;;6128413;28;81794;-50
2023/09/08 15:27:44;;;;;;;10.90;5.78;;;25.50;61.50;;;;;;6124465;28;81120;-52